This is the latest recevied weather packets stored in our database for station/object KM6YFK-13. If no packets are shown the sender has not sent any weather packets the latest 10 day(s).
| Time | Temp. | Humidity | Pressure | Rain* | Wind** | Luminosity | Snow |
|---|---|---|---|---|---|---|---|
| 1777912107 | 24.44° C | 52% | 1018.1 hPa | 0 mm | - | 459 W/m² | - |
| 1777911808 | 24.44° C | 51% | 1018.3 hPa | 0 mm | - | 1058 W/m² | - |
| 1777911508 | 24.44° C | 52% | 1018.1 hPa | 0 mm | - | 1005 W/m² | - |
| 1777911208 | 24.44° C | 52% | 1018.1 hPa | 0 mm | - | 966 W/m² | - |
| 1777910908 | 24.44° C | 51% | 1018.1 hPa | 0 mm | - | 953 W/m² | - |
| 1777910608 | 24.44° C | 50% | 1018.2 hPa | 0 mm | - | 943 W/m² | - |
| 1777910308 | 24.44° C | 51% | 1018.3 hPa | 0 mm | - | 932 W/m² | - |
| 1777910008 | 24.44° C | 48% | 1018.3 hPa | 0 mm | - | 926 W/m² | - |
| 1777909707 | 24.44° C | 49% | 1018.3 hPa | 0 mm | - | 913 W/m² | - |
| 1777909408 | 24.44° C | 49% | 1018.3 hPa | 0 mm | - | 903 W/m² | - |
| 1777909108 | 25° C | 48% | 1018.3 hPa | 0 mm | - | 886 W/m² | - |
| 1777908807 | 24.44° C | 50% | 1018.4 hPa | 0 mm | - | 878 W/m² | - |
| 1777908507 | 24.44° C | 50% | 1018.4 hPa | 0 mm | - | 866 W/m² | - |
| 1777908207 | 24.44° C | 51% | 1018.4 hPa | 0 mm | - | 857 W/m² | - |
| 1777907909 | 24.44° C | 50% | 1018.5 hPa | 0 mm | - | 846 W/m² | - |
| 1777907608 | 24.44° C | 51% | 1018.5 hPa | 0 mm | - | 832 W/m² | - |
| 1777907308 | 24.44° C | 51% | 1018.4 hPa | 0 mm | - | 817 W/m² | - |
| 1777907008 | 24.44° C | 53% | 1018.5 hPa | 0 mm | - | 805 W/m² | - |
| 1777906709 | 24.44° C | 50% | 1018.5 hPa | 0 mm | - | 802 W/m² | - |
| 1777906407 | 23.89° C | 53% | 1018.4 hPa | 0 mm | - | 780 W/m² | - |
| 1777906108 | 23.89° C | 53% | 1018.4 hPa | 0 mm | - | 762 W/m² | - |
| 1777905808 | 24.44° C | 54% | 1018.3 hPa | 0 mm | - | 743 W/m² | - |
| 1777905508 | 24.44° C | 56% | 1018.3 hPa | 0 mm | - | 730 W/m² | - |
| 1777905208 | 23.89° C | 56% | 1018.2 hPa | 0 mm | - | 713 W/m² | - |
| 1777904908 | 23.89° C | 54% | 1018.2 hPa | 0 mm | - | 701 W/m² | - |
* Rain latest hour (hover to see other rain measurements)
** Current wind speed in m/s (hover to see current wind gust speed)